Time;durP1;ratioP1;P1;durP2;ratioP2;P2;SDS_P1;SDS_P2;PMS_P1;PMS_P2;Temp;Humidity;BMP_temperature;BMP_pressure;BME280_temperature;BME280_humidity;BME280_pressure;Samples;Min_cycle;Max_cycle;Signal;HPM_P1;HPM_P2
2021/12/25 00:00:28;;;;;;;53.13;20.77;;;6.20;99.90;;;;;;6158800;23;20005;-61
2021/12/25 00:02:54;;;;;;;49.67;20.60;;;6.20;99.90;;;;;;6156769;23;20018;-60
2021/12/25 00:05:21;;;;;;;54.20;20.33;;;6.20;99.90;;;;;;6156409;23;20024;-60
2021/12/25 00:07:48;;;;;;;58.15;20.40;;;6.20;99.90;;;;;;6156216;23;20040;-60
2021/12/25 00:10:15;;;;;;;47.25;20.17;;;6.20;99.90;;;;;;6156106;23;20012;-60
2021/12/25 00:12:41;;;;;;;53.53;19.60;;;6.20;99.90;;;;;;6156511;23;20010;-60
2021/12/25 00:15:08;;;;;;;56.50;21.17;;;6.20;99.90;;;;;;6156399;23;20490;-60
2021/12/25 00:17:35;;;;;;;50.90;20.38;;;6.20;99.90;;;;;;6155990;23;20502;-60
2021/12/25 00:20:04;;;;;;;52.17;20.88;;;6.20;99.90;;;;;;6156158;23;20014;-60
2021/12/25 00:22:30;;;;;;;47.88;18.67;;;6.20;99.90;;;;;;6156468;23;20328;-60
2021/12/25 00:24:57;;;;;;;62.03;22.85;;;6.20;99.90;;;;;;6156038;23;20021;-60
2021/12/25 00:32:43;;;;;;;57.00;23.00;;;6.20;99.90;;;;;;6154598;23;20032;-60
2021/12/25 00:35:13;;;;;;;58.58;21.83;;;6.20;99.90;;;;;;6155971;23;20064;-60
2021/12/25 00:37:41;;;;;;;47.38;19.95;;;6.20;99.90;;;;;;6155755;23;20033;-60
2021/12/25 00:40:09;;;;;;;48.10;20.25;;;6.20;99.90;;;;;;6156764;23;20384;-60
2021/12/25 00:42:36;;;;;;;43.45;18.02;;;6.20;99.90;;;;;;6156004;23;20022;-60
2021/12/25 00:45:05;;;;;;;49.72;17.42;;;6.20;99.90;;;;;;6154403;23;20443;-60
2021/12/25 00:47:31;;;;;;;52.80;17.38;;;6.20;99.90;;;;;;6154555;23;20006;-60
2021/12/25 00:49:58;;;;;;;40.70;16.23;;;6.20;99.90;;;;;;6156348;23;20393;-60
2021/12/25 00:52:25;;;;;;;47.45;18.83;;;6.10;99.90;;;;;;6154459;23;20010;-61
2021/12/25 00:54:51;;;;;;;39.05;16.90;;;6.20;99.90;;;;;;6154189;23;20002;-60
2021/12/25 00:57:18;;;;;;;54.67;18.13;;;6.20;99.90;;;;;;6155997;23;20093;-60
2021/12/25 00:59:44;;;;;;;45.08;17.63;;;6.10;99.90;;;;;;6154209;23;20006;-61
2021/12/25 01:02:11;;;;;;;42.85;16.75;;;6.20;99.90;;;;;;6155850;23;20009;-61
2021/12/25 01:04:40;;;;;;;48.42;16.90;;;6.20;99.90;;;;;;6156185;23;20018;-61
2021/12/25 01:07:07;;;;;;;41.83;17.08;;;6.20;99.90;;;;;;6154316;23;20336;-61
2021/12/25 01:09:34;;;;;;;40.00;15.82;;;6.20;99.90;;;;;;6156208;23;20033;-61
2021/12/25 01:12:05;;;;;;;41.05;17.10;;;6.20;99.90;;;;;;6156061;23;20013;-61
2021/12/25 01:14:46;;;;;;;46.22;15.80;;;6.20;99.90;;;;;;6155878;23;20037;-61
2021/12/25 01:31:21;;;;;;;34.00;14.95;;;6.30;99.90;;;;;;6101127;23;20395;-61
2021/12/25 01:37:19;;;;;;;39.92;14.25;;;6.20;99.90;;;;;;6125635;23;20028;-61
2021/12/25 01:40:55;;;;;;;37.78;14.02;;;6.20;99.90;;;;;;6067529;23;20011;-61
2021/12/25 01:49:08;;;;;;;34.55;13.60;;;6.20;99.90;;;;;;6125333;23;20436;-61
2021/12/25 01:51:35;;;;;;;34.33;12.90;;;6.20;99.90;;;;;;6125470;23;20069;-61
2021/12/25 01:54:02;;;;;;;34.53;13.43;;;6.20;99.90;;;;;;6101178;23;20096;-61
2021/12/25 01:56:33;;;;;;;32.28;13.38;;;6.20;99.90;;;;;;6125353;23;20469;-61
2021/12/25 01:58:59;;;;;;;40.08;14.75;;;6.20;99.90;;;;;;6128841;23;20061;-61
2021/12/25 02:01:26;;;;;;;37.00;13.75;;;6.20;99.90;;;;;;6157228;23;20028;-61
2021/12/25 02:03:53;;;;;;;41.25;14.43;;;6.20;99.90;;;;;;6157598;23;20017;-61
2021/12/25 02:06:20;;;;;;;44.55;14.93;;;6.20;99.90;;;;;;6155732;23;20136;-61
2021/12/25 02:08:46;;;;;;;37.90;14.90;;;6.20;99.90;;;;;;6157596;23;20016;-59
2021/12/25 02:11:14;;;;;;;43.83;15.10;;;6.20;99.90;;;;;;6157019;23;20008;-61
2021/12/25 02:13:43;;;;;;;43.83;16.75;;;6.20;99.90;;;;;;6157743;23;20002;-61
2021/12/25 02:16:19;;;;;;;46.60;16.92;;;6.20;99.90;;;;;;6157104;23;20040;-61
2021/12/25 02:21:42;;;;;;;39.30;15.43;;;6.20;99.90;;;;;;6156942;23;20084;-61
2021/12/25 02:24:12;;;;;;;41.05;15.90;;;6.20;99.90;;;;;;6157002;23;20021;-61
2021/12/25 02:26:44;;;;;;;48.80;16.58;;;6.10;99.90;;;;;;6156859;23;20029;-61
2021/12/25 02:29:12;;;;;;;42.25;16.95;;;6.10;99.90;;;;;;6156360;23;20024;-60
2021/12/25 02:31:39;;;;;;;42.90;17.90;;;6.10;99.90;;;;;;6153743;23;20009;-58
2021/12/25 02:34:05;;;;;;;42.70;16.38;;;6.10;99.90;;;;;;6157074;23;20013;-61
2021/12/25 02:36:32;;;;;;;37.92;15.38;;;6.00;99.90;;;;;;6154688;23;20095;-61
2021/12/25 02:39:02;;;;;;;41.08;16.75;;;6.00;99.90;;;;;;6154998;23;20013;-61
2021/12/25 02:41:29;;;;;;;43.80;17.40;;;6.00;99.90;;;;;;6156858;23;20012;-61
2021/12/25 02:43:56;;;;;;;42.95;18.77;;;6.00;99.90;;;;;;6156658;23;20013;-61
2021/12/25 02:46:34;;;;;;;42.42;17.15;;;6.00;99.90;;;;;;6156776;23;20037;-61
2021/12/25 02:49:00;;;;;;;45.08;18.25;;;5.90;99.90;;;;;;6155324;23;20455;-61
2021/12/25 02:51:27;;;;;;;46.50;16.55;;;5.90;99.90;;;;;;6155286;23;20010;-60
2021/12/25 02:53:57;;;;;;;45.30;17.83;;;5.90;99.90;;;;;;6157115;23;20035;-61
2021/12/25 02:56:24;;;;;;;43.10;15.80;;;5.90;99.90;;;;;;6156730;23;20340;-61
2021/12/25 02:58:51;;;;;;;41.63;17.92;;;5.90;99.90;;;;;;6155742;23;20010;-60
2021/12/25 03:01:19;;;;;;;49.58;17.58;;;5.90;99.90;;;;;;6155174;23;20005;-60
2021/12/25 03:03:47;;;;;;;47.95;16.85;;;5.80;99.90;;;;;;6155027;23;20018;-58
2021/12/25 03:06:14;;;;;;;42.83;17.48;;;5.80;99.90;;;;;;6155128;23;20101;-61
2021/12/25 03:08:42;;;;;;;50.47;17.83;;;5.80;99.90;;;;;;6155101;23;20009;-61
2021/12/25 03:11:14;;;;;;;43.25;17.17;;;5.80;99.90;;;;;;6155042;23;20033;-61
2021/12/25 03:13:57;;;;;;;48.05;18.30;;;5.80;99.90;;;;;;6156482;23;20006;-61
2021/12/25 03:16:30;;;;;;;45.58;16.35;;;5.80;99.90;;;;;;6156612;23;20016;-61
2021/12/25 03:18:59;;;;;;;50.22;18.60;;;5.80;99.90;;;;;;6157060;23;20001;-61
2021/12/25 03:21:26;;;;;;;48.45;17.75;;;5.80;99.90;;;;;;6156931;23;20001;-61
2021/12/25 03:23:56;;;;;;;52.38;18.33;;;5.80;99.90;;;;;;6130510;23;20037;-60
2021/12/25 03:26:23;;;;;;;46.40;16.65;;;5.80;99.90;;;;;;6156366;23;20092;-60
2021/12/25 03:28:52;;;;;;;39.53;16.40;;;5.70;99.90;;;;;;6156468;23;20064;-61
2021/12/25 03:31:21;;;;;;;38.40;16.60;;;5.70;99.90;;;;;;6154990;23;20009;-61
2021/12/25 03:33:53;;;;;;;62.08;16.45;;;5.70;99.90;;;;;;6156784;23;20332;-61
2021/12/25 03:36:21;;;;;;;36.80;15.93;;;5.70;99.90;;;;;;6155997;23;20467;-61
2021/12/25 03:38:49;;;;;;;38.15;16.30;;;5.70;99.90;;;;;;6156860;23;20381;-61
2021/12/25 03:41:18;;;;;;;35.40;15.10;;;5.70;99.90;;;;;;6156353;23;20010;-61
2021/12/25 03:43:49;;;;;;;41.90;16.48;;;5.70;99.90;;;;;;6156279;23;20024;-60
2021/12/25 03:46:18;;;;;;;39.72;15.95;;;5.60;99.90;;;;;;6156297;23;20040;-60
2021/12/25 03:59:18;;;;;;;39.90;16.52;;;5.60;99.90;;;;;;6154778;23;20085;-60
2021/12/25 04:01:52;;;;;;;40.53;16.38;;;5.50;99.90;;;;;;6154691;23;20040;-60
2021/12/25 04:04:26;;;;;;;41.75;16.45;;;5.50;99.90;;;;;;6154664;23;20100;-60
2021/12/25 04:07:08;;;;;;;38.95;16.40;;;5.50;99.90;;;;;;6156146;23;20041;-60
2021/12/25 04:09:35;;;;;;;45.13;16.85;;;5.40;99.90;;;;;;6156059;23;20020;-60
2021/12/25 04:12:10;;;;;;;34.42;14.20;;;5.40;99.90;;;;;;6154598;23;20012;-60
2021/12/25 04:14:38;;;;;;;41.38;15.93;;;5.40;99.90;;;;;;6156919;23;20056;-60
2021/12/25 04:17:06;;;;;;;42.33;15.45;;;5.40;99.90;;;;;;6156003;23;20092;-60
2021/12/25 04:19:35;;;;;;;47.17;15.35;;;5.40;99.90;;;;;;6156010;23;20040;-60
2021/12/25 04:22:15;;;;;;;39.22;14.60;;;5.40;99.90;;;;;;6130676;23;20088;-60
2021/12/25 04:24:44;;;;;;;39.75;15.18;;;5.50;99.90;;;;;;6156394;23;20022;-60
2021/12/25 04:27:15;;;;;;;38.85;15.20;;;5.40;99.90;;;;;;6156419;23;20007;-60
2021/12/25 04:29:51;;;;;;;43.05;14.65;;;5.50;99.90;;;;;;6156040;23;20088;-60
2021/12/25 05:06:00;;;;;;;34.00;13.20;;;5.50;99.90;;;;;;6140769;23;20028;-60
2021/12/25 05:08:41;;;;;;;32.63;13.30;;;5.40;99.90;;;;;;6158098;23;20334;-60
2021/12/25 05:11:07;;;;;;;35.28;12.93;;;5.40;99.90;;;;;;6157680;23;20459;-60
2021/12/25 05:13:37;;;;;;;28.88;12.25;;;5.40;99.90;;;;;;6155885;23;20041;-60
2021/12/25 05:16:05;;;;;;;37.08;11.98;;;5.40;99.90;;;;;;6157670;23;20033;-60
2021/12/25 05:18:32;;;;;;;26.25;11.82;;;5.40;99.90;;;;;;6157970;23;20013;-60
2021/12/25 05:20:58;;;;;;;26.48;10.98;;;5.40;99.90;;;;;;6157738;23;20084;-60
2021/12/25 05:23:26;;;;;;;28.00;11.52;;;5.40;99.90;;;;;;6157437;23;20005;-60
2021/12/25 05:25:53;;;;;;;30.35;12.00;;;5.40;99.90;;;;;;6157672;23;20005;-60
2021/12/25 05:28:38;;;;;;;30.50;11.48;;;5.40;99.90;;;;;;6157142;23;20025;-60
2021/12/25 05:31:13;;;;;;;28.25;11.95;;;5.30;99.90;;;;;;6157991;23;20013;-60
2021/12/25 05:33:56;;;;;;;30.02;11.63;;;5.30;99.90;;;;;;6157361;23;20040;-60
2021/12/25 05:36:41;;;;;;;30.92;11.32;;;5.30;99.90;;;;;;6157511;23;20049;-60
2021/12/25 05:39:26;;;;;;;31.63;13.32;;;5.30;99.90;;;;;;6157577;23;20020;-60
2021/12/25 05:41:53;;;;;;;35.30;12.45;;;5.20;99.90;;;;;;6157924;23;20396;-60
2021/12/25 05:44:36;;;;;;;27.17;11.48;;;5.30;99.90;;;;;;6158286;23;20040;-60
2021/12/25 05:47:21;;;;;;;30.25;13.02;;;5.30;99.90;;;;;;6157412;23;20081;-60
2021/12/25 05:49:51;;;;;;;34.50;13.43;;;5.20;99.90;;;;;;6155857;23;20005;-60
2021/12/25 05:52:39;;;;;;;34.00;12.27;;;5.30;99.90;;;;;;6157662;23;20020;-60
2021/12/25 05:55:25;;;;;;;28.00;12.60;;;5.30;99.90;;;;;;6157802;23;20089;-60
2021/12/25 05:58:30;;;;;;;28.80;12.18;;;5.30;99.90;;;;;;6096517;23;20018;-60
2021/12/25 06:01:40;;;;;;;25.73;9.95;;;5.30;99.90;;;;;;6071071;23;20021;-60
2021/12/25 06:04:08;;;;;;;29.70;10.93;;;5.30;99.90;;;;;;6142721;23;20391;-60
2021/12/25 06:06:34;;;;;;;29.20;12.05;;;5.30;99.90;;;;;;6157193;23;20077;-60
2021/12/25 06:09:07;;;;;;;26.23;11.50;;;5.30;99.90;;;;;;6157217;23;20009;-60
2021/12/25 06:11:38;;;;;;;27.60;11.13;;;5.40;99.90;;;;;;6155707;23;20012;-60
2021/12/25 06:14:18;;;;;;;26.65;11.07;;;5.40;99.90;;;;;;6155669;23;20009;-60
2021/12/25 06:17:05;;;;;;;27.00;10.23;;;5.40;99.90;;;;;;6151559;23;20013;-60
2021/12/25 06:19:38;;;;;;;16.55;7.97;;;5.40;99.90;;;;;;6155769;23;20013;-60
2021/12/25 06:22:23;;;;;;;24.98;9.18;;;5.40;99.90;;;;;;6157158;23;20021;-60
2021/12/25 06:25:23;;;;;;;24.60;9.95;;;5.50;99.90;;;;;;6155614;23;20084;-61
2021/12/25 06:28:05;;;;;;;21.30;9.68;;;5.60;99.90;;;;;;6157436;23;20013;-60
2021/12/25 06:30:35;;;;;;;28.98;12.18;;;5.70;99.90;;;;;;6157376;23;20010;-60
2021/12/25 06:33:23;;;;;;;27.60;10.52;;;5.90;99.90;;;;;;6157395;23;20455;-60
2021/12/25 06:36:13;;;;;;;27.55;11.68;;;6.10;99.90;;;;;;6114834;23;20022;-60
2021/12/25 06:38:46;;;;;;;31.05;11.48;;;6.40;99.90;;;;;;6155454;23;20009;-60
2021/12/25 06:41:22;;;;;;;29.02;9.98;;;6.60;99.90;;;;;;6157242;23;20017;-60
2021/12/25 06:43:49;;;;;;;29.45;10.77;;;6.80;99.90;;;;;;6156828;23;20558;-60
2021/12/25 06:46:28;;;;;;;24.83;9.75;;;6.70;99.90;;;;;;6156740;23;20064;-60
2021/12/25 06:48:55;;;;;;;27.33;10.32;;;6.70;99.90;;;;;;6156793;23;20012;-60
2021/12/25 06:51:49;;;;;;;35.83;12.55;;;6.60;99.90;;;;;;6156478;23;20052;-60
2021/12/25 06:54:34;;;;;;;28.20;12.07;;;6.70;99.90;;;;;;6156848;23;20028;-60
2021/12/25 06:57:21;;;;;;;29.95;11.20;;;6.90;99.90;;;;;;6156323;23;20439;-60
2021/12/25 06:59:48;;;;;;;30.85;10.93;;;7.10;99.90;;;;;;6157736;23;20010;-60
2021/12/25 07:02:15;;;;;;;22.58;10.30;;;7.30;99.90;;;;;;6130705;23;20056;-60
2021/12/25 07:05:00;;;;;;;28.58;9.52;;;7.50;99.90;;;;;;6156969;23;20092;-60
2021/12/25 07:07:50;;;;;;;24.98;8.38;;;7.80;99.90;;;;;;6156991;23;20009;-60
2021/12/25 07:10:25;;;;;;;28.48;9.18;;;8.00;99.90;;;;;;6156962;23;20013;-60
2021/12/25 07:13:00;;;;;;;23.60;9.82;;;8.20;99.90;;;;;;6157030;23;20060;-60
2021/12/25 07:15:35;;;;;;;28.58;9.25;;;8.20;99.90;;;;;;6156297;23;20005;-60
2021/12/25 07:18:20;;;;;;;19.48;8.48;;;8.30;99.90;;;;;;6157010;23;20017;-60
2021/12/25 07:21:13;;;;;;;22.65;8.27;;;8.30;99.90;;;;;;6154725;23;20017;-60
2021/12/25 07:24:11;;;;;;;22.05;9.05;;;8.40;99.90;;;;;;6124593;23;20137;-60
2021/12/25 07:26:47;;;;;;;20.58;8.10;;;8.50;99.90;;;;;;6124555;23;20439;-60
2021/12/25 07:29:21;;;;;;;20.35;9.30;;;8.60;99.90;;;;;;6124459;23;20020;-60
2021/12/25 07:31:49;;;;;;;16.92;7.57;;;8.60;99.90;;;;;;6124970;23;20006;-60
2021/12/25 07:34:16;;;;;;;18.45;7.15;;;8.70;99.90;;;;;;6124771;23;20095;-60
2021/12/25 07:36:43;;;;;;;17.67;7.28;;;8.80;99.90;;;;;;6124162;23;20332;-60
2021/12/25 07:39:09;;;;;;;14.57;6.30;;;8.90;99.90;;;;;;6124764;23;20009;-60
2021/12/25 07:41:36;;;;;;;16.40;6.82;;;9.00;99.90;;;;;;6124347;23;20026;-60
2021/12/25 07:44:04;;;;;;;13.93;5.88;;;9.10;99.90;;;;;;6124853;23;20013;-60
2021/12/25 07:46:44;;;;;;;14.95;5.80;;;9.20;99.90;;;;;;6124383;23;20459;-60
2021/12/25 07:49:16;;;;;;;13.93;5.13;;;9.40;99.90;;;;;;6125302;23;20010;-60
2021/12/25 07:51:44;;;;;;;12.18;4.97;;;9.50;99.90;;;;;;6124667;23;20088;-60
2021/12/25 07:54:14;;;;;;;9.55;4.82;;;9.60;99.90;;;;;;6095646;23;20492;-60
2021/12/25 07:56:40;;;;;;;8.32;4.65;;;9.80;99.90;;;;;;6097619;23;20081;-60
2021/12/25 07:59:10;;;;;;;11.68;4.38;;;9.90;99.90;;;;;;6097476;23;20004;-60
2021/12/25 08:01:37;;;;;;;7.20;3.75;;;10.00;99.90;;;;;;6096485;23;20085;-60
2021/12/25 08:04:04;;;;;;;9.65;4.05;;;10.10;99.90;;;;;;6097256;23;20015;-60
2021/12/25 08:06:31;;;;;;;7.30;3.83;;;10.30;99.90;;;;;;6097395;23;20014;-60
2021/12/25 08:09:00;;;;;;;13.45;3.50;;;10.50;99.90;;;;;;6097316;23;20505;-60
2021/12/25 08:11:28;;;;;;;7.25;3.25;;;10.60;99.90;;;;;;6097369;23;20013;-60
2021/12/25 08:13:55;;;;;;;7.82;3.58;;;10.70;99.90;;;;;;6097208;23;20034;-60
2021/12/25 08:16:21;;;;;;;12.82;3.58;;;10.90;99.90;;;;;;6096387;23;20377;-60
2021/12/25 08:18:47;;;;;;;7.05;3.13;;;10.90;99.90;;;;;;6097304;23;20002;-60
2021/12/25 08:21:32;;;;;;;7.07;3.55;;;11.00;99.90;;;;;;6097539;23;20028;-60
2021/12/25 08:24:18;;;;;;;6.68;3.17;;;11.10;99.90;;;;;;6097610;23;20117;-60
2021/12/25 08:27:05;;;;;;;6.22;2.90;;;11.20;99.90;;;;;;6098543;23;20017;-60
2021/12/25 08:29:49;;;;;;;7.50;3.10;;;11.30;99.90;;;;;;6099484;23;20532;-60
2021/12/25 08:32:34;;;;;;;12.18;3.00;;;11.40;99.90;;;;;;6099272;23;20074;-60
2021/12/25 08:35:19;;;;;;;8.75;2.83;;;11.50;99.90;;;;;;6099701;23;20022;-60
2021/12/25 08:37:46;;;;;;;7.32;3.17;;;11.40;99.90;;;;;;6153869;23;20021;-60
2021/12/25 08:40:15;;;;;;;8.48;2.97;;;11.50;99.90;;;;;;6157935;23;20006;-60
2021/12/25 08:42:47;;;;;;;5.22;2.72;;;11.50;99.90;;;;;;6157871;23;20319;-60
2021/12/25 08:46:03;;;;;;;8.27;3.10;;;11.60;99.90;;;;;;6157833;23;20021;-60
2021/12/25 08:48:03;;;;;;;15.88;2.97;;;11.60;99.90;;;;;;6152111;23;20137;-60
2021/12/25 08:50:32;;;;;;;4.88;2.53;;;11.70;99.90;;;;;;6158005;23;20006;-60
2021/12/25 08:52:58;;;;;;;6.90;2.70;;;11.80;99.90;;;;;;6158127;23;20025;-60
2021/12/25 08:55:25;;;;;;;8.07;2.60;;;12.00;99.90;;;;;;6157749;23;20005;-60
2021/12/25 08:57:52;;;;;;;11.95;2.05;;;12.10;99.90;;;;;;6157659;23;20013;-60
2021/12/25 09:00:22;;;;;;;4.65;2.50;;;12.20;99.90;;;;;;6157895;23;20065;-60
2021/12/25 09:02:49;;;;;;;4.32;2.08;;;12.30;99.90;;;;;;6156104;23;20010;-60
2021/12/25 09:05:15;;;;;;;6.18;2.30;;;12.40;99.90;;;;;;6156154;23;20020;-60
2021/12/25 09:07:41;;;;;;;8.43;2.83;;;12.40;99.90;;;;;;6157703;23;20033;-61
2021/12/25 09:10:08;;;;;;;7.15;2.08;;;12.50;99.90;;;;;;6157491;23;20005;-61
2021/12/25 09:12:40;;;;;;;5.95;1.95;;;12.50;99.90;;;;;;6157627;23;20088;-60
2021/12/25 09:15:07;;;;;;;5.50;1.80;;;12.50;99.90;;;;;;6157659;23;20010;-60
2021/12/25 09:17:33;;;;;;;5.68;2.40;;;12.60;99.90;;;;;;6157541;23;20006;-60
2021/12/25 09:19:59;;;;;;;13.77;2.53;;;12.70;99.90;;;;;;6157998;23;20339;-60
2021/12/25 09:22:26;;;;;;;9.27;2.80;;;12.70;99.90;;;;;;6157506;23;20001;-61
2021/12/25 09:24:52;;;;;;;13.68;2.67;;;12.70;99.90;;;;;;6157399;23;20017;-61
2021/12/25 09:27:18;;;;;;;3.72;2.00;;;12.80;99.90;;;;;;6157631;23;20008;-60
2021/12/25 09:29:44;;;;;;;5.57;2.58;;;12.80;99.90;;;;;;6158303;23;20044;-61
2021/12/25 09:32:10;;;;;;;5.80;2.70;;;12.90;99.90;;;;;;6157808;23;20363;-60
2021/12/25 09:34:36;;;;;;;5.60;1.90;;;13.00;99.90;;;;;;6157456;23;20013;-60
2021/12/25 09:37:03;;;;;;;4.20;2.22;;;13.00;99.90;;;;;;6157115;23;20024;-61
2021/12/25 09:39:30;;;;;;;6.95;2.83;;;13.10;99.90;;;;;;6157338;23;20060;-61
2021/12/25 09:41:56;;;;;;;7.68;3.70;;;13.10;99.90;;;;;;6157665;23;20084;-60
2021/12/25 09:44:22;;;;;;;4.72;2.45;;;13.20;99.90;;;;;;6157261;23;20435;-61
2021/12/25 09:46:49;;;;;;;5.75;2.45;;;13.20;99.90;;;;;;6157282;23;20108;-61
2021/12/25 09:49:18;;;;;;;6.13;2.22;;;13.20;99.90;;;;;;6157369;23;20005;-61
2021/12/25 09:51:45;;;;;;;4.07;1.75;;;13.30;99.90;;;;;;6157492;23;20044;-61
2021/12/25 09:54:14;;;;;;;10.65;4.25;;;13.30;99.90;;;;;;6155634;23;20009;-61
2021/12/25 09:56:43;;;;;;;12.82;3.92;;;13.30;99.90;;;;;;6156129;23;20010;-61
2021/12/25 09:59:11;;;;;;;7.47;1.92;;;13.30;99.90;;;;;;6156917;23;20002;-61
2021/12/25 10:01:43;;;;;;;5.70;2.35;;;13.40;99.90;;;;;;6157239;23;20029;-61
2021/12/25 10:04:13;;;;;;;4.22;2.45;;;13.40;99.90;;;;;;6157019;23;20076;-61
2021/12/25 10:06:44;;;;;;;4.43;1.80;;;13.50;99.90;;;;;;6157049;23;20013;-61
2021/12/25 10:09:14;;;;;;;3.30;2.00;;;13.50;99.90;;;;;;6157485;23;20379;-61
2021/12/25 10:12:00;;;;;;;8.05;2.88;;;13.50;99.90;;;;;;6157445;23;20005;-61
2021/12/25 10:14:27;;;;;;;4.38;3.05;;;13.50;99.90;;;;;;6156809;23;20013;-61
2021/12/25 10:16:55;;;;;;;8.02;1.88;;;13.50;99.90;;;;;;6155503;23;20005;-61
2021/12/25 10:19:27;;;;;;;4.90;1.77;;;13.50;99.90;;;;;;6157426;23;20009;-61
2021/12/25 10:22:08;;;;;;;10.60;2.08;;;13.60;99.90;;;;;;6156860;23;20006;-61
2021/12/25 10:24:49;;;;;;;3.33;2.05;;;13.50;99.90;;;;;;6155336;23;20096;-61
2021/12/25 10:27:20;;;;;;;10.52;2.92;;;13.60;99.90;;;;;;6157073;23;20100;-61
2021/12/25 10:29:48;;;;;;;19.45;4.90;;;13.60;99.90;;;;;;6156768;23;20009;-61
2021/12/25 10:32:19;;;;;;;5.65;2.95;;;13.70;99.90;;;;;;6156860;23;20012;-61
2021/12/25 10:34:50;;;;;;;4.70;1.98;;;13.70;99.90;;;;;;6157165;23;20040;-61
2021/12/25 10:37:20;;;;;;;3.70;2.03;;;13.70;99.90;;;;;;6156530;23;20017;-61
2021/12/25 10:39:48;;;;;;;15.95;2.25;;;13.70;99.90;;;;;;6156849;23;20040;-61
2021/12/25 10:42:19;;;;;;;7.57;1.75;;;13.70;99.90;;;;;;6156758;23;20380;-61
2021/12/25 10:44:54;;;;;;;11.48;1.98;;;13.80;99.90;;;;;;6155247;23;20510;-61
2021/12/25 10:47:25;;;;;;;3.53;2.08;;;13.80;99.90;;;;;;6156873;23;20009;-61
2021/12/25 10:49:58;;;;;;;8.88;2.92;;;13.90;99.90;;;;;;6156236;23;20013;-61
2021/12/25 10:52:27;;;;;;;8.85;1.88;;;13.80;99.90;;;;;;6156884;23;20006;-61
2021/12/25 10:55:13;;;;;;;4.88;2.40;;;13.80;99.90;;;;;;6156742;23;20048;-61
2021/12/25 10:57:47;;;;;;;6.95;2.35;;;13.90;99.90;;;;;;6156566;23;20005;-61
2021/12/25 11:00:36;;;;;;;5.53;2.60;;;13.90;99.90;;;;;;6157028;23;20399;-61
2021/12/25 11:03:11;;;;;;;4.35;2.17;;;14.00;99.90;;;;;;6157050;23;20020;-61
2021/12/25 11:05:44;;;;;;;6.38;1.83;;;14.00;99.90;;;;;;6156925;23;20351;-61
2021/12/25 11:08:17;;;;;;;5.88;1.98;;;14.10;99.90;;;;;;6156683;23;20001;-61
2021/12/25 11:10:50;;;;;;;9.57;2.38;;;14.20;99.90;;;;;;6156647;23;20010;-61
2021/12/25 11:13:23;;;;;;;8.57;2.75;;;14.30;99.90;;;;;;6156727;23;20006;-61
2021/12/25 11:15:57;;;;;;;4.22;2.38;;;14.30;99.90;;;;;;6157011;23;20002;-61
2021/12/25 11:19:09;;;;;;;5.27;1.87;;;14.40;99.90;;;;;;6156632;23;20017;-61
2021/12/25 11:21:57;;;;;;;2.60;1.45;;;14.50;99.90;;;;;;6156872;23;20257;-61
2021/12/25 11:24:27;;;;;;;6.95;2.00;;;14.50;99.90;;;;;;6156202;23;20013;-61
2021/12/25 11:26:58;;;;;;;4.82;2.00;;;14.60;99.90;;;;;;6156786;23;20010;-61
2021/12/25 11:29:29;;;;;;;7.80;2.70;;;14.60;99.90;;;;;;6156449;23;20324;-60
2021/12/25 11:31:58;;;;;;;5.30;3.17;;;14.60;99.90;;;;;;6155677;23;20037;-61
2021/12/25 11:34:27;;;;;;;4.05;1.63;;;14.60;99.90;;;;;;6156036;23;20059;-61
2021/12/25 11:36:56;;;;;;;5.95;2.38;;;14.60;99.90;;;;;;6155721;23;20049;-61
2021/12/25 11:39:27;;;;;;;6.15;2.33;;;14.50;99.90;;;;;;6156334;23;20001;-60
2021/12/25 11:42:00;;;;;;;5.10;2.38;;;14.50;99.90;;;;;;6156781;23;20009;-61
2021/12/25 11:44:51;;;;;;;5.13;1.65;;;14.40;99.90;;;;;;6156198;23;20017;-61
2021/12/25 11:47:37;;;;;;;8.43;3.13;;;14.50;99.90;;;;;;6156205;23;20016;-62
2021/12/25 11:50:25;;;;;;;5.03;2.53;;;14.50;99.90;;;;;;6156608;23;20006;-60
2021/12/25 11:54:26;;;;;;;12.40;1.95;;;14.50;99.90;;;;;;6156176;23;20432;-61
2021/12/25 11:56:32;;;;;;;5.35;1.85;;;14.50;99.90;;;;;;6145780;23;20020;-61
2021/12/25 11:59:08;;;;;;;8.20;3.33;;;14.50;99.90;;;;;;6156190;23;20016;-61
2021/12/25 12:01:43;;;;;;;6.28;2.10;;;14.50;99.90;;;;;;6156182;23;20064;-60
2021/12/25 14:02:03;;;;;;;12.20;3.35;;;13.90;99.90;;;;;;6122456;23;20100;-73
2021/12/25 14:04:32;;;;;;;15.13;5.10;;;13.90;99.90;;;;;;6155574;23;20342;-74
2021/12/25 14:06:59;;;;;;;13.73;6.13;;;14.00;99.90;;;;;;6156168;23;19997;-76
2021/12/25 14:09:25;;;;;;;7.03;3.22;;;13.90;99.90;;;;;;6157185;23;20080;-76
2021/12/25 14:11:56;;;;;;;12.95;4.32;;;13.90;99.90;;;;;;6157597;23;20025;-76
2021/12/25 14:14:26;;;;;;;7.60;2.17;;;13.90;99.90;;;;;;6157308;23;20461;-73
2021/12/25 14:16:54;;;;;;;11.20;4.28;;;13.90;99.90;;;;;;6155664;23;20009;-73
2021/12/25 14:19:30;;;;;;;15.30;5.53;;;13.80;99.90;;;;;;6157272;23;20005;-73
2021/12/25 14:22:00;;;;;;;12.60;4.00;;;13.80;99.90;;;;;;6157587;23;20005;-73
2021/12/25 14:24:30;;;;;;;14.18;5.22;;;13.80;99.90;;;;;;6156599;23;20083;-74
2021/12/25 14:27:22;;;;;;;12.40;4.13;;;13.70;99.90;;;;;;6157510;23;20008;-73
2021/12/25 14:29:50;;;;;;;6.57;3.15;;;13.70;99.90;;;;;;6157546;23;20044;-75
2021/12/25 14:32:21;;;;;;;9.82;4.50;;;13.70;99.90;;;;;;6156916;23;20002;-76
2021/12/25 14:34:49;;;;;;;13.40;4.30;;;13.70;99.90;;;;;;6157097;23;20045;-73
2021/12/25 14:37:16;;;;;;;23.80;4.97;;;13.70;99.90;;;;;;6157128;23;20060;-75
2021/12/25 14:39:43;;;;;;;11.75;4.50;;;13.60;99.90;;;;;;6157397;23;20041;-75
2021/12/25 14:42:09;;;;;;;10.18;4.40;;;13.60;99.90;;;;;;6156991;23;20519;-72
2021/12/25 14:44:37;;;;;;;9.77;4.22;;;13.50;99.90;;;;;;6156759;23;20344;-75
2021/12/25 14:47:13;;;;;;;9.35;4.15;;;13.60;99.90;;;;;;6157002;23;20001;-72
2021/12/25 14:49:45;;;;;;;11.52;4.15;;;13.60;99.90;;;;;;6156905;23;20322;-73
2021/12/25 14:52:14;;;;;;;8.65;3.85;;;13.50;99.90;;;;;;6156956;23;20005;-72
2021/12/25 14:54:42;;;;;;;8.52;3.67;;;13.50;99.90;;;;;;6156760;23;20010;-72
2021/12/25 14:57:20;;;;;;;29.05;5.28;;;13.50;99.90;;;;;;6156895;23;20304;-72
2021/12/25 14:59:47;;;;;;;17.13;4.10;;;13.50;99.90;;;;;;6156707;23;20331;-71
2021/12/25 15:02:20;;;;;;;9.13;3.85;;;13.40;99.90;;;;;;6156527;23;20092;-72
2021/12/25 15:04:51;;;;;;;22.23;6.45;;;13.40;99.90;;;;;;6130507;23;20021;-73
2021/12/25 15:07:22;;;;;;;17.63;4.75;;;13.40;99.90;;;;;;6157112;23;20006;-72
2021/12/25 15:09:54;;;;;;;13.55;4.40;;;13.40;99.90;;;;;;6156721;23;20076;-73
2021/12/25 15:12:25;;;;;;;13.48;5.45;;;13.40;99.90;;;;;;6156665;23;20001;-74
2021/12/25 15:14:55;;;;;;;9.50;4.65;;;13.30;99.90;;;;;;6156921;23;20009;-72
2021/12/25 15:17:30;;;;;;;14.95;6.28;;;13.30;99.90;;;;;;6156643;23;20005;-73
2021/12/25 15:20:10;;;;;;;9.38;4.35;;;13.30;99.90;;;;;;6156636;23;20010;-74
2021/12/25 15:22:38;;;;;;;16.42;5.07;;;13.30;99.90;;;;;;6155029;23;20005;-72
2021/12/25 15:25:08;;;;;;;18.08;5.15;;;13.20;99.90;;;;;;6156340;23;20344;-72
2021/12/25 15:27:56;;;;;;;11.45;5.03;;;13.20;99.90;;;;;;6156333;23;20076;-73
2021/12/25 15:30:34;;;;;;;11.65;3.88;;;13.20;99.90;;;;;;6155053;23;20092;-72
2021/12/25 15:33:09;;;;;;;14.90;5.25;;;13.20;99.90;;;;;;6156458;23;20009;-73
2021/12/25 15:35:42;;;;;;;9.15;4.50;;;13.20;99.90;;;;;;6156285;23;20001;-72
2021/12/25 15:38:10;;;;;;;24.02;5.18;;;13.10;99.90;;;;;;6156600;23;20084;-72
2021/12/25 15:40:46;;;;;;;22.00;4.75;;;13.10;99.90;;;;;;6156384;23;20001;-73
2021/12/25 15:43:17;;;;;;;22.52;5.78;;;13.10;99.90;;;;;;6154542;23;20024;-73
2021/12/25 15:45:43;;;;;;;21.05;5.63;;;13.10;99.90;;;;;;6156052;23;20080;-73
2021/12/25 15:48:10;;;;;;;16.77;6.65;;;13.10;99.90;;;;;;6156238;23;20006;-73
2021/12/25 15:50:37;;;;;;;12.73;6.32;;;13.00;99.90;;;;;;6156317;23;20367;-72
2021/12/25 15:53:05;;;;;;;12.23;6.10;;;13.10;99.90;;;;;;6156553;23;20004;-73
2021/12/25 15:55:33;;;;;;;14.50;5.70;;;13.10;99.90;;;;;;6155998;23;20422;-72
2021/12/25 15:58:08;;;;;;;15.18;5.40;;;13.10;99.90;;;;;;6155222;23;20005;-72
2021/12/25 16:00:39;;;;;;;16.85;5.75;;;13.10;99.90;;;;;;6156917;23;20010;-72
2021/12/25 16:03:06;;;;;;;15.45;6.03;;;13.10;99.90;;;;;;6155766;23;20346;-72
2021/12/25 16:05:33;;;;;;;11.45;5.47;;;13.00;99.90;;;;;;6155838;23;20025;-72
2021/12/25 16:07:59;;;;;;;19.10;5.13;;;13.00;99.90;;;;;;6155413;23;20063;-72
2021/12/25 16:10:26;;;;;;;17.30;5.85;;;13.00;99.90;;;;;;6156105;23;20010;-72
2021/12/25 16:12:56;;;;;;;27.30;6.43;;;13.00;99.90;;;;;;6154569;23;20080;-73
2021/12/25 16:15:23;;;;;;;14.98;5.65;;;12.90;99.90;;;;;;6154535;23;20358;-72
2021/12/25 16:17:50;;;;;;;19.02;5.95;;;12.90;99.90;;;;;;6155933;23;20016;-72
2021/12/25 16:20:17;;;;;;;30.40;6.78;;;13.00;99.90;;;;;;6155986;23;20072;-72